Terminal Aerodrome Forecast
Issued by NWS

Home | Current Version | Previous Version | Text Only | Print | Product List | Glossary On
Versions: 1 2 3 4 5 6 7 8 9 10 11 12 13 14 15 16 17 18 19 20 21 22
000
FTUS43 KLSX 170400 AAA
TAFCPS
TAF AMD
KCPS 170402Z 1704/1724 VRB03KT P6SM SKC
      TEMPO 1704/1708 3SM BR
     FM170800 VRB03KT P6SM BKN040
     FM171900 16005KT P6SM SCT040=

USA.gov is the U.S. government's official web portal to all federal, state and local government web resources and services.